DIAP/ABJ METAR and TAF weather

Enter ICAO airport designator
Station Type Date Time Source
DIAP METAR 2019/11/18 09:30 UTC NOAA

DIAP 180930Z VRB01KT 9999 FEW012 30/25 Q1010 NOSIG


Station Type Date Time Source
DIAP Decoded METAR 2019/11/18 09:30 UTC NOAA

Abidjan, Cote d'Ivoire (DIAP) 05-15N 003-56W 8M
Nov 18, 2019 - 04:30 AM EST / 2019.11.18 0930 UTC
Wind: Variable at 1 MPH (1 KT):0
Visibility: greater than 7 mile(s):0
Sky conditions: mostly clear
Temperature: 86 F (30 C)
Heat index: 96.8 F (36.0 C):1
Dew Point: 77 F (25 C)
Relative Humidity: 74%
Pressure (altimeter): 29.83 in. Hg (1010 hPa)
ob: DIAP 180930Z VRB01KT 9999 FEW012 30/25 Q1010 NOSIG
cycle: 9

Station Type Date Time Source
DIAP TAF 2019/11/18 06:30 UTC NOAA

TAF TAF DIAP 180500Z 1806/1912 20004KT 8000 SCT012 PROB30 1806/1808 2000 BR PROB30
TEMPO 1814/1820 TS SCT012 FEW020CB PROB30
TEMPO 1900/1904 4000 TSRA BKN012 FEW020CB

Example: see airport list